sensor_id;sensor_type;location;lat;lon;timestamp;temperature;humidity
39401;DHT22;54391;50.000;7.360;2023-09-30T00:00:48;14.00;82.50
39401;DHT22;54391;50.000;7.360;2023-09-30T00:03:15;14.10;82.70
39401;DHT22;54391;50.000;7.360;2023-09-30T00:05:43;14.10;80.70
39401;DHT22;54391;50.000;7.360;2023-09-30T00:08:10;14.00;80.60
39401;DHT22;54391;50.000;7.360;2023-09-30T00:10:37;14.00;81.50
39401;DHT22;54391;50.000;7.360;2023-09-30T00:13:04;14.00;81.50
39401;DHT22;54391;50.000;7.360;2023-09-30T00:15:32;14.00;78.80
39401;DHT22;54391;50.000;7.360;2023-09-30T00:18:01;14.00;79.00
39401;DHT22;54391;50.000;7.360;2023-09-30T00:20:29;14.00;78.70
39401;DHT22;54391;50.000;7.360;2023-09-30T00:22:56;13.80;79.50
39401;DHT22;54391;50.000;7.360;2023-09-30T00:25:24;13.70;79.70
39401;DHT22;54391;50.000;7.360;2023-09-30T00:27:51;13.70;80.70
39401;DHT22;54391;50.000;7.360;2023-09-30T00:30:18;13.50;80.20
39401;DHT22;54391;50.000;7.360;2023-09-30T00:32:47;13.50;81.20
39401;DHT22;54391;50.000;7.360;2023-09-30T00:35:15;13.50;80.70
39401;DHT22;54391;50.000;7.360;2023-09-30T00:37:43;13.50;81.40
39401;DHT22;54391;50.000;7.360;2023-09-30T00:40:11;13.50;80.40
39401;DHT22;54391;50.000;7.360;2023-09-30T00:42:39;13.40;79.00
39401;DHT22;54391;50.000;7.360;2023-09-30T00:45:08;13.20;78.70
39401;DHT22;54391;50.000;7.360;2023-09-30T00:47:36;13.10;79.60
39401;DHT22;54391;50.000;7.360;2023-09-30T00:50:05;13.10;82.60
39401;DHT22;54391;50.000;7.360;2023-09-30T00:52:36;13.10;82.30
39401;DHT22;54391;50.000;7.360;2023-09-30T00:55:04;13.00;84.40
39401;DHT22;54391;50.000;7.360;2023-09-30T00:57:33;13.00;84.90
39401;DHT22;54391;50.000;7.360;2023-09-30T01:00:01;13.00;85.20
39401;DHT22;54391;50.000;7.360;2023-09-30T01:02:29;13.00;85.00
39401;DHT22;54391;50.000;7.360;2023-09-30T01:04:56;12.80;84.70
39401;DHT22;54391;50.000;7.360;2023-09-30T01:07:24;12.80;85.30
39401;DHT22;54391;50.000;7.360;2023-09-30T01:09:54;12.80;86.10
39401;DHT22;54391;50.000;7.360;2023-09-30T01:12:22;12.80;85.80
39401;DHT22;54391;50.000;7.360;2023-09-30T01:14:49;12.80;85.40
39401;DHT22;54391;50.000;7.360;2023-09-30T01:17:16;12.70;83.10
39401;DHT22;54391;50.000;7.360;2023-09-30T01:19:43;12.60;83.20
39401;DHT22;54391;50.000;7.360;2023-09-30T01:22:12;12.70;83.30
39401;DHT22;54391;50.000;7.360;2023-09-30T01:24:40;12.50;82.90
39401;DHT22;54391;50.000;7.360;2023-09-30T01:27:07;12.40;82.70
39401;DHT22;54391;50.000;7.360;2023-09-30T01:29:35;12.30;83.90
39401;DHT22;54391;50.000;7.360;2023-09-30T01:32:04;12.30;84.40
39401;DHT22;54391;50.000;7.360;2023-09-30T01:34:33;12.20;85.20
39401;DHT22;54391;50.000;7.360;2023-09-30T01:37:00;12.20;84.80
39401;DHT22;54391;50.000;7.360;2023-09-30T01:39:29;12.20;85.80
39401;DHT22;54391;50.000;7.360;2023-09-30T01:41:57;12.20;86.50
39401;DHT22;54391;50.000;7.360;2023-09-30T01:44:25;12.30;87.60
39401;DHT22;54391;50.000;7.360;2023-09-30T01:46:53;12.40;85.90
39401;DHT22;54391;50.000;7.360;2023-09-30T01:49:20;12.50;86.10
39401;DHT22;54391;50.000;7.360;2023-09-30T01:51:50;12.50;85.50
39401;DHT22;54391;50.000;7.360;2023-09-30T01:54:18;15.10;85.70
39401;DHT22;54391;50.000;7.360;2023-09-30T01:59:15;12.50;84.30
39401;DHT22;54391;50.000;7.360;2023-09-30T02:01:43;12.60;85.40
39401;DHT22;54391;50.000;7.360;2023-09-30T02:04:13;12.60;83.50
39401;DHT22;54391;50.000;7.360;2023-09-30T02:06:41;12.50;83.10
39401;DHT22;54391;50.000;7.360;2023-09-30T02:09:09;12.50;83.80
39401;DHT22;54391;50.000;7.360;2023-09-30T02:11:36;12.70;85.70
39401;DHT22;54391;50.000;7.360;2023-09-30T02:14:09;12.80;82.60
39401;DHT22;54391;50.000;7.360;2023-09-30T02:16:38;12.70;80.10
39401;DHT22;54391;50.000;7.360;2023-09-30T02:19:05;12.70;81.40
39401;DHT22;54391;50.000;7.360;2023-09-30T02:21:35;12.80;82.00
39401;DHT22;54391;50.000;7.360;2023-09-30T02:24:03;12.80;82.00
39401;DHT22;54391;50.000;7.360;2023-09-30T02:26:32;12.80;81.00
39401;DHT22;54391;50.000;7.360;2023-09-30T02:28:59;12.70;81.40
39401;DHT22;54391;50.000;7.360;2023-09-30T02:31:28;12.80;81.90
39401;DHT22;54391;50.000;7.360;2023-09-30T02:33:55;12.80;81.50
39401;DHT22;54391;50.000;7.360;2023-09-30T02:36:22;12.90;79.90
39401;DHT22;54391;50.000;7.360;2023-09-30T02:38:50;12.90;79.60
39401;DHT22;54391;50.000;7.360;2023-09-30T02:41:17;12.90;79.80
39401;DHT22;54391;50.000;7.360;2023-09-30T02:43:44;12.80;78.10
39401;DHT22;54391;50.000;7.360;2023-09-30T02:46:12;12.50;78.00
39401;DHT22;54391;50.000;7.360;2023-09-30T02:48:41;12.60;80.00
39401;DHT22;54391;50.000;7.360;2023-09-30T02:51:10;12.60;80.10
39401;DHT22;54391;50.000;7.360;2023-09-30T02:53:37;12.60;77.50
39401;DHT22;54391;50.000;7.360;2023-09-30T02:56:06;12.40;77.90
39401;DHT22;54391;50.000;7.360;2023-09-30T02:58:33;12.30;77.30
39401;DHT22;54391;50.000;7.360;2023-09-30T03:01:02;12.30;79.50
39401;DHT22;54391;50.000;7.360;2023-09-30T03:03:29;12.30;78.50
39401;DHT22;54391;50.000;7.360;2023-09-30T03:05:58;12.20;78.70
39401;DHT22;54391;50.000;7.360;2023-09-30T03:08:26;12.20;80.40
39401;DHT22;54391;50.000;7.360;2023-09-30T03:10:53;12.20;79.80
39401;DHT22;54391;50.000;7.360;2023-09-30T03:13:20;12.20;78.70
39401;DHT22;54391;50.000;7.360;2023-09-30T03:15:48;12.20;76.40
39401;DHT22;54391;50.000;7.360;2023-09-30T03:18:17;12.20;76.70
39401;DHT22;54391;50.000;7.360;2023-09-30T03:20:48;12.10;76.20
39401;DHT22;54391;50.000;7.360;2023-09-30T03:23:18;12.00;77.90
39401;DHT22;54391;50.000;7.360;2023-09-30T03:25:45;12.00;78.40
39401;DHT22;54391;50.000;7.360;2023-09-30T03:28:12;12.00;78.90
39401;DHT22;54391;50.000;7.360;2023-09-30T03:30:40;12.00;79.80
39401;DHT22;54391;50.000;7.360;2023-09-30T03:33:08;11.90;78.20
39401;DHT22;54391;50.000;7.360;2023-09-30T03:35:35;11.80;77.70
39401;DHT22;54391;50.000;7.360;2023-09-30T03:38:03;11.80;78.30
39401;DHT22;54391;50.000;7.360;2023-09-30T03:40:32;11.80;78.30
39401;DHT22;54391;50.000;7.360;2023-09-30T03:43:00;11.70;77.50
39401;DHT22;54391;50.000;7.360;2023-09-30T03:45:27;11.60;77.00
39401;DHT22;54391;50.000;7.360;2023-09-30T03:47:55;11.60;78.00
39401;DHT22;54391;50.000;7.360;2023-09-30T03:50:23;11.60;78.30
39401;DHT22;54391;50.000;7.360;2023-09-30T03:52:50;11.60;78.50
39401;DHT22;54391;50.000;7.360;2023-09-30T03:55:17;11.50;77.90
39401;DHT22;54391;50.000;7.360;2023-09-30T03:57:47;11.50;78.70
39401;DHT22;54391;50.000;7.360;2023-09-30T04:00:15;11.50;78.70
39401;DHT22;54391;50.000;7.360;2023-09-30T04:02:44;11.40;79.00
39401;DHT22;54391;50.000;7.360;2023-09-30T04:05:14;11.50;78.40
39401;DHT22;54391;50.000;7.360;2023-09-30T04:07:43;11.40;78.90
39401;DHT22;54391;50.000;7.360;2023-09-30T04:10:10;11.50;79.50
39401;DHT22;54391;50.000;7.360;2023-09-30T04:12:37;11.50;79.10
39401;DHT22;54391;50.000;7.360;2023-09-30T04:15:07;11.40;78.20
39401;DHT22;54391;50.000;7.360;2023-09-30T04:17:38;11.40;78.80
39401;DHT22;54391;50.000;7.360;2023-09-30T04:20:06;11.40;80.10
39401;DHT22;54391;50.000;7.360;2023-09-30T04:22:35;11.40;79.20
39401;DHT22;54391;50.000;7.360;2023-09-30T04:25:03;11.30;78.30
39401;DHT22;54391;50.000;7.360;2023-09-30T04:27:34;11.30;78.80
39401;DHT22;54391;50.000;7.360;2023-09-30T04:30:03;11.30;79.00
39401;DHT22;54391;50.000;7.360;2023-09-30T04:32:36;11.20;78.80
39401;DHT22;54391;50.000;7.360;2023-09-30T04:35:04;11.10;78.40
39401;DHT22;54391;50.000;7.360;2023-09-30T04:37:34;11.10;79.10
39401;DHT22;54391;50.000;7.360;2023-09-30T04:40:03;11.10;79.30
39401;DHT22;54391;50.000;7.360;2023-09-30T04:42:33;11.20;79.90
39401;DHT22;54391;50.000;7.360;2023-09-30T04:45:02;11.20;80.20
39401;DHT22;54391;50.000;7.360;2023-09-30T04:47:32;11.20;80.30
39401;DHT22;54391;50.000;7.360;2023-09-30T04:50:01;11.10;79.80
39401;DHT22;54391;50.000;7.360;2023-09-30T04:52:30;11.10;80.70
39401;DHT22;54391;50.000;7.360;2023-09-30T04:54:58;11.10;79.80
39401;DHT22;54391;50.000;7.360;2023-09-30T04:57:25;11.10;81.60
39401;DHT22;54391;50.000;7.360;2023-09-30T04:59:53;11.20;80.20
39401;DHT22;54391;50.000;7.360;2023-09-30T05:02:20;11.10;80.10
39401;DHT22;54391;50.000;7.360;2023-09-30T05:04:47;11.10;80.90
39401;DHT22;54391;50.000;7.360;2023-09-30T05:07:16;10.90;80.90
39401;DHT22;54391;50.000;7.360;2023-09-30T05:09:44;10.80;82.90
39401;DHT22;54391;50.000;7.360;2023-09-30T05:12:11;10.80;84.30
39401;DHT22;54391;50.000;7.360;2023-09-30T05:14:38;13.10;86.70
39401;DHT22;54391;50.000;7.360;2023-09-30T05:17:05;10.70;85.70
39401;DHT22;54391;50.000;7.360;2023-09-30T05:19:34;10.80;87.30
39401;DHT22;54391;50.000;7.360;2023-09-30T05:22:02;10.80;87.20
39401;DHT22;54391;50.000;7.360;2023-09-30T05:24:32;10.80;87.50
39401;DHT22;54391;50.000;7.360;2023-09-30T05:27:00;10.80;86.70
39401;DHT22;54391;50.000;7.360;2023-09-30T05:29:28;10.80;87.60
39401;DHT22;54391;50.000;7.360;2023-09-30T05:31:59;10.70;87.40
39401;DHT22;54391;50.000;7.360;2023-09-30T05:34:26;10.70;87.30
39401;DHT22;54391;50.000;7.360;2023-09-30T05:36:53;10.70;86.70
39401;DHT22;54391;50.000;7.360;2023-09-30T05:39:21;10.60;87.30
39401;DHT22;54391;50.000;7.360;2023-09-30T05:41:49;10.70;87.70
39401;DHT22;54391;50.000;7.360;2023-09-30T05:44:17;10.70;88.10
39401;DHT22;54391;50.000;7.360;2023-09-30T05:46:44;10.90;87.40
39401;DHT22;54391;50.000;7.360;2023-09-30T05:49:12;10.90;87.80
39401;DHT22;54391;50.000;7.360;2023-09-30T05:51:39;11.00;87.20
39401;DHT22;54391;50.000;7.360;2023-09-30T05:54:07;11.00;86.20
39401;DHT22;54391;50.000;7.360;2023-09-30T05:56:36;10.80;84.20
39401;DHT22;54391;50.000;7.360;2023-09-30T05:59:05;10.80;85.70
39401;DHT22;54391;50.000;7.360;2023-09-30T06:01:33;10.70;85.00
39401;DHT22;54391;50.000;7.360;2023-09-30T06:04:01;10.60;84.70
39401;DHT22;54391;50.000;7.360;2023-09-30T06:06:28;10.60;82.30
39401;DHT22;54391;50.000;7.360;2023-09-30T06:08:56;10.60;83.20
39401;DHT22;54391;50.000;7.360;2023-09-30T06:11:24;10.60;83.00
39401;DHT22;54391;50.000;7.360;2023-09-30T06:13:54;10.50;82.10
39401;DHT22;54391;50.000;7.360;2023-09-30T06:16:23;10.50;81.50
39401;DHT22;54391;50.000;7.360;2023-09-30T06:18:52;10.50;82.00
39401;DHT22;54391;50.000;7.360;2023-09-30T06:21:20;10.60;84.30
39401;DHT22;54391;50.000;7.360;2023-09-30T06:23:48;10.60;84.50
39401;DHT22;54391;50.000;7.360;2023-09-30T06:26:18;10.60;83.00
39401;DHT22;54391;50.000;7.360;2023-09-30T06:28:46;10.60;83.50
39401;DHT22;54391;50.000;7.360;2023-09-30T06:31:14;10.70;82.50
39401;DHT22;54391;50.000;7.360;2023-09-30T06:33:44;10.80;82.40
39401;DHT22;54391;50.000;7.360;2023-09-30T06:36:12;11.10;76.70
39401;DHT22;54391;50.000;7.360;2023-09-30T06:38:40;11.20;77.60
39401;DHT22;54391;50.000;7.360;2023-09-30T06:41:16;11.30;74.00
39401;DHT22;54391;50.000;7.360;2023-09-30T06:43:43;11.30;72.60
39401;DHT22;54391;50.000;7.360;2023-09-30T06:46:12;11.50;72.10
39401;DHT22;54391;50.000;7.360;2023-09-30T06:48:40;11.50;70.20
39401;DHT22;54391;50.000;7.360;2023-09-30T06:51:14;11.60;71.50
39401;DHT22;54391;50.000;7.360;2023-09-30T06:53:43;11.80;70.30
39401;DHT22;54391;50.000;7.360;2023-09-30T06:56:11;11.90;63.70
39401;DHT22;54391;50.000;7.360;2023-09-30T06:58:39;11.90;62.40
39401;DHT22;54391;50.000;7.360;2023-09-30T07:01:06;12.10;61.40
39401;DHT22;54391;50.000;7.360;2023-09-30T07:03:34;12.10;60.90
39401;DHT22;54391;50.000;7.360;2023-09-30T07:06:01;12.50;60.90
39401;DHT22;54391;50.000;7.360;2023-09-30T07:08:30;12.60;59.10
39401;DHT22;54391;50.000;7.360;2023-09-30T07:10:58;12.90;56.70
39401;DHT22;54391;50.000;7.360;2023-09-30T07:13:26;13.00;54.50
39401;DHT22;54391;50.000;7.360;2023-09-30T07:15:53;13.40;44.80
39401;DHT22;54391;50.000;7.360;2023-09-30T07:18:20;13.40;44.10
39401;DHT22;54391;50.000;7.360;2023-09-30T07:20:47;13.50;42.60
39401;DHT22;54391;50.000;7.360;2023-09-30T07:23:14;13.40;45.00
39401;DHT22;54391;50.000;7.360;2023-09-30T07:25:44;13.50;43.10
39401;DHT22;54391;50.000;7.360;2023-09-30T07:28:11;13.50;44.80
39401;DHT22;54391;50.000;7.360;2023-09-30T07:30:39;13.40;45.40
39401;DHT22;54391;50.000;7.360;2023-09-30T07:33:06;13.50;44.80
39401;DHT22;54391;50.000;7.360;2023-09-30T07:35:34;13.00;40.70
39401;DHT22;54391;50.000;7.360;2023-09-30T07:38:02;12.80;43.60
39401;DHT22;54391;50.000;7.360;2023-09-30T07:40:30;12.50;50.50
39401;DHT22;54391;50.000;7.360;2023-09-30T07:43:00;12.40;53.70
39401;DHT22;54391;50.000;7.360;2023-09-30T07:45:27;12.30;58.40
39401;DHT22;54391;50.000;7.360;2023-09-30T07:47:54;12.20;58.80
39401;DHT22;54391;50.000;7.360;2023-09-30T07:50:22;12.00;63.40
39401;DHT22;54391;50.000;7.360;2023-09-30T07:52:49;12.00;65.20
39401;DHT22;54391;50.000;7.360;2023-09-30T07:55:16;12.20;71.30
39401;DHT22;54391;50.000;7.360;2023-09-30T07:57:43;12.20;71.80
39401;DHT22;54391;50.000;7.360;2023-09-30T08:00:14;12.00;72.90
39401;DHT22;54391;50.000;7.360;2023-09-30T08:02:42;11.90;76.00
39401;DHT22;54391;50.000;7.360;2023-09-30T08:05:10;11.80;80.70
39401;DHT22;54391;50.000;7.360;2023-09-30T08:07:37;11.80;80.70
39401;DHT22;54391;50.000;7.360;2023-09-30T08:10:06;11.70;84.20
39401;DHT22;54391;50.000;7.360;2023-09-30T08:12:38;11.60;84.50
39401;DHT22;54391;50.000;7.360;2023-09-30T08:15:06;11.80;84.20
39401;DHT22;54391;50.000;7.360;2023-09-30T08:17:35;11.80;84.90
39401;DHT22;54391;50.000;7.360;2023-09-30T08:20:03;11.80;84.80
39401;DHT22;54391;50.000;7.360;2023-09-30T08:22:31;11.80;85.50
39401;DHT22;54391;50.000;7.360;2023-09-30T08:24:58;12.20;85.70
39401;DHT22;54391;50.000;7.360;2023-09-30T08:27:26;12.30;86.40
39401;DHT22;54391;50.000;7.360;2023-09-30T08:29:53;12.30;83.80
39401;DHT22;54391;50.000;7.360;2023-09-30T08:32:20;12.40;82.60
39401;DHT22;54391;50.000;7.360;2023-09-30T08:34:49;12.60;80.10
39401;DHT22;54391;50.000;7.360;2023-09-30T08:37:16;12.70;77.80
39401;DHT22;54391;50.000;7.360;2023-09-30T08:39:44;12.80;74.60
39401;DHT22;54391;50.000;7.360;2023-09-30T08:42:11;13.10;73.00
39401;DHT22;54391;50.000;7.360;2023-09-30T08:44:38;13.30;70.50
39401;DHT22;54391;50.000;7.360;2023-09-30T08:47:06;13.60;60.70
39401;DHT22;54391;50.000;7.360;2023-09-30T08:49:35;13.80;63.30
39401;DHT22;54391;50.000;7.360;2023-09-30T08:52:06;13.80;61.60
39401;DHT22;54391;50.000;7.360;2023-09-30T08:54:33;13.80;61.90
39401;DHT22;54391;50.000;7.360;2023-09-30T08:57:01;13.60;58.30
39401;DHT22;54391;50.000;7.360;2023-09-30T08:59:31;13.70;59.70
39401;DHT22;54391;50.000;7.360;2023-09-30T09:02:01;14.60;55.00
39401;DHT22;54391;50.000;7.360;2023-09-30T09:04:29;14.90;42.90
39401;DHT22;54391;50.000;7.360;2023-09-30T09:06:57;15.50;37.30
39401;DHT22;54391;50.000;7.360;2023-09-30T09:09:25;15.50;31.60
39401;DHT22;54391;50.000;7.360;2023-09-30T09:11:52;15.60;29.70
39401;DHT22;54391;50.000;7.360;2023-09-30T09:14:22;15.60;29.20
39401;DHT22;54391;50.000;7.360;2023-09-30T09:17:03;15.60;30.50
39401;DHT22;54391;50.000;7.360;2023-09-30T09:19:30;15.60;29.40
39401;DHT22;54391;50.000;7.360;2023-09-30T09:22:00;16.30;26.50
39401;DHT22;54391;50.000;7.360;2023-09-30T09:24:33;17.20;17.40
39401;DHT22;54391;50.000;7.360;2023-09-30T09:27:10;18.20;10.40
39401;DHT22;54391;50.000;7.360;2023-09-30T09:29:38;18.70;8.30
39401;DHT22;54391;50.000;7.360;2023-09-30T09:32:10;19.40;7.90
39401;DHT22;54391;50.000;7.360;2023-09-30T09:34:37;19.50;1.70
39401;DHT22;54391;50.000;7.360;2023-09-30T09:37:15;19.10;2.50
39401;DHT22;54391;50.000;7.360;2023-09-30T09:39:51;17.60;8.50
39401;DHT22;54391;50.000;7.360;2023-09-30T09:42:26;17.40;13.90
39401;DHT22;54391;50.000;7.360;2023-09-30T09:44:56;18.10;9.40
39401;DHT22;54391;50.000;7.360;2023-09-30T09:47:24;18.10;9.60
39401;DHT22;54391;50.000;7.360;2023-09-30T09:49:51;18.20;4.60
39401;DHT22;54391;50.000;7.360;2023-09-30T09:52:22;18.70;7.00
39401;DHT22;54391;50.000;7.360;2023-09-30T09:54:51;19.10;7.10
39401;DHT22;54391;50.000;7.360;2023-09-30T09:57:18;18.80;1.00
39401;DHT22;54391;50.000;7.360;2023-09-30T09:59:46;18.80;6.70
39401;DHT22;54391;50.000;7.360;2023-09-30T10:02:15;18.70;6.00
39401;DHT22;54391;50.000;7.360;2023-09-30T10:04:44;19.10;4.00
39401;DHT22;54391;50.000;7.360;2023-09-30T10:07:14;19.50;1.00
39401;DHT22;54391;50.000;7.360;2023-09-30T10:09:46;19.90;1.00
39401;DHT22;54391;50.000;7.360;2023-09-30T10:12:16;20.10;1.00
39401;DHT22;54391;50.000;7.360;2023-09-30T10:14:44;19.40;1.00
39401;DHT22;54391;50.000;7.360;2023-09-30T10:17:11;18.80;1.00
39401;DHT22;54391;50.000;7.360;2023-09-30T10:20:03;18.70;2.30
39401;DHT22;54391;50.000;7.360;2023-09-30T10:22:30;18.10;5.10
39401;DHT22;54391;50.000;7.360;2023-09-30T10:24:58;18.20;5.40
39401;DHT22;54391;50.000;7.360;2023-09-30T10:27:36;18.20;6.20
39401;DHT22;54391;50.000;7.360;2023-09-30T10:30:09;18.70;1.00
39401;DHT22;54391;50.000;7.360;2023-09-30T10:33:09;18.90;2.70
39401;DHT22;54391;50.000;7.360;2023-09-30T10:35:48;19.80;1.00
39401;DHT22;54391;50.000;7.360;2023-09-30T10:38:37;19.80;1.00
39401;DHT22;54391;50.000;7.360;2023-09-30T10:41:07;20.00;1.00
39401;DHT22;54391;50.000;7.360;2023-09-30T10:43:37;20.40;1.00
39401;DHT22;54391;50.000;7.360;2023-09-30T10:46:30;20.90;1.00
39401;DHT22;54391;50.000;7.360;2023-09-30T10:49:14;20.60;1.00
39401;DHT22;54391;50.000;7.360;2023-09-30T10:51:43;20.20;1.00
39401;DHT22;54391;50.000;7.360;2023-09-30T10:54:13;20.50;1.00
39401;DHT22;54391;50.000;7.360;2023-09-30T10:56:40;20.70;1.00
39401;DHT22;54391;50.000;7.360;2023-09-30T10:59:09;20.60;1.00
39401;DHT22;54391;50.000;7.360;2023-09-30T11:01:36;20.80;1.00
39401;DHT22;54391;50.000;7.360;2023-09-30T11:04:05;20.70;1.00
39401;DHT22;54391;50.000;7.360;2023-09-30T11:06:34;20.60;1.00
39401;DHT22;54391;50.000;7.360;2023-09-30T11:09:02;20.50;1.00
39401;DHT22;54391;50.000;7.360;2023-09-30T11:11:36;20.40;1.00
39401;DHT22;54391;50.000;7.360;2023-09-30T11:14:21;20.40;1.00
39401;DHT22;54391;50.000;7.360;2023-09-30T11:16:51;20.30;1.00
39401;DHT22;54391;50.000;7.360;2023-09-30T11:19:19;20.20;1.00
39401;DHT22;54391;50.000;7.360;2023-09-30T11:21:49;20.50;1.00
39401;DHT22;54391;50.000;7.360;2023-09-30T11:24:16;20.60;1.00
39401;DHT22;54391;50.000;7.360;2023-09-30T11:26:44;20.30;1.00
39401;DHT22;54391;50.000;7.360;2023-09-30T11:29:12;19.80;1.00
39401;DHT22;54391;50.000;7.360;2023-09-30T11:31:44;19.30;1.00
39401;DHT22;54391;50.000;7.360;2023-09-30T11:34:13;19.00;1.00
39401;DHT22;54391;50.000;7.360;2023-09-30T11:36:48;18.30;1.00
39401;DHT22;54391;50.000;7.360;2023-09-30T11:39:22;18.00;1.00
39401;DHT22;54391;50.000;7.360;2023-09-30T11:41:50;18.20;1.00
39401;DHT22;54391;50.000;7.360;2023-09-30T11:44:18;18.40;1.00
39401;DHT22;54391;50.000;7.360;2023-09-30T11:46:52;18.50;1.00
39401;DHT22;54391;50.000;7.360;2023-09-30T11:49:30;18.40;1.00
39401;DHT22;54391;50.000;7.360;2023-09-30T11:51:59;18.00;1.00
39401;DHT22;54391;50.000;7.360;2023-09-30T11:54:30;18.00;1.00
39401;DHT22;54391;50.000;7.360;2023-09-30T11:56:59;17.80;1.00
39401;DHT22;54391;50.000;7.360;2023-09-30T11:59:27;17.60;1.00
39401;DHT22;54391;50.000;7.360;2023-09-30T12:01:55;17.70;1.00
39401;DHT22;54391;50.000;7.360;2023-09-30T12:04:22;18.20;1.00
39401;DHT22;54391;50.000;7.360;2023-09-30T12:06:50;18.90;1.00
39401;DHT22;54391;50.000;7.360;2023-09-30T12:09:18;19.00;1.00
39401;DHT22;54391;50.000;7.360;2023-09-30T12:11:48;19.10;1.00
39401;DHT22;54391;50.000;7.360;2023-09-30T12:14:15;19.30;1.00
39401;DHT22;54391;50.000;7.360;2023-09-30T12:16:43;19.20;1.00
39401;DHT22;54391;50.000;7.360;2023-09-30T12:19:13;19.20;1.00
39401;DHT22;54391;50.000;7.360;2023-09-30T12:21:41;19.60;1.00
39401;DHT22;54391;50.000;7.360;2023-09-30T12:24:09;19.30;1.00
39401;DHT22;54391;50.000;7.360;2023-09-30T12:26:40;19.50;1.00
39401;DHT22;54391;50.000;7.360;2023-09-30T12:29:07;19.70;1.00
39401;DHT22;54391;50.000;7.360;2023-09-30T12:31:35;19.80;1.00
39401;DHT22;54391;50.000;7.360;2023-09-30T12:34:02;19.60;1.00
39401;DHT22;54391;50.000;7.360;2023-09-30T12:36:31;19.40;1.00
39401;DHT22;54391;50.000;7.360;2023-09-30T12:38:58;19.20;1.00
39401;DHT22;54391;50.000;7.360;2023-09-30T12:41:26;18.70;1.00
39401;DHT22;54391;50.000;7.360;2023-09-30T12:43:55;18.70;1.00
39401;DHT22;54391;50.000;7.360;2023-09-30T12:46:22;18.60;1.00
39401;DHT22;54391;50.000;7.360;2023-09-30T12:48:50;18.70;1.00
39401;DHT22;54391;50.000;7.360;2023-09-30T12:51:17;18.80;1.00
39401;DHT22;54391;50.000;7.360;2023-09-30T12:53:46;19.00;1.00
39401;DHT22;54391;50.000;7.360;2023-09-30T12:56:13;19.20;1.00
39401;DHT22;54391;50.000;7.360;2023-09-30T12:58:41;19.60;1.00
39401;DHT22;54391;50.000;7.360;2023-09-30T13:01:08;19.40;1.00
39401;DHT22;54391;50.000;7.360;2023-09-30T13:03:35;19.40;1.00
39401;DHT22;54391;50.000;7.360;2023-09-30T13:06:06;19.20;1.00
39401;DHT22;54391;50.000;7.360;2023-09-30T13:08:33;19.00;1.00
39401;DHT22;54391;50.000;7.360;2023-09-30T13:11:03;18.90;1.00
39401;DHT22;54391;50.000;7.360;2023-09-30T13:13:32;18.70;1.00
39401;DHT22;54391;50.000;7.360;2023-09-30T13:16:01;18.60;1.00
39401;DHT22;54391;50.000;7.360;2023-09-30T13:18:28;18.60;1.00
39401;DHT22;54391;50.000;7.360;2023-09-30T13:20:56;18.70;1.00
39401;DHT22;54391;50.000;7.360;2023-09-30T13:23:23;18.70;1.00
39401;DHT22;54391;50.000;7.360;2023-09-30T13:25:51;18.80;1.00
39401;DHT22;54391;50.000;7.360;2023-09-30T13:28:19;18.90;1.00
39401;DHT22;54391;50.000;7.360;2023-09-30T13:30:47;18.80;1.00
39401;DHT22;54391;50.000;7.360;2023-09-30T13:33:15;18.90;1.00
39401;DHT22;54391;50.000;7.360;2023-09-30T13:35:45;19.10;1.00
39401;DHT22;54391;50.000;7.360;2023-09-30T13:38:13;19.10;1.00
39401;DHT22;54391;50.000;7.360;2023-09-30T13:40:41;18.90;1.00
39401;DHT22;54391;50.000;7.360;2023-09-30T13:43:09;19.00;1.00
39401;DHT22;54391;50.000;7.360;2023-09-30T13:45:38;18.90;1.00
39401;DHT22;54391;50.000;7.360;2023-09-30T13:48:06;19.00;1.00
39401;DHT22;54391;50.000;7.360;2023-09-30T13:50:33;18.90;1.00
39401;DHT22;54391;50.000;7.360;2023-09-30T13:53:00;18.70;1.00
39401;DHT22;54391;50.000;7.360;2023-09-30T13:55:28;18.50;1.00
39401;DHT22;54391;50.000;7.360;2023-09-30T13:57:55;18.60;1.00
39401;DHT22;54391;50.000;7.360;2023-09-30T14:00:23;18.80;1.00
39401;DHT22;54391;50.000;7.360;2023-09-30T14:02:52;18.80;1.00
39401;DHT22;54391;50.000;7.360;2023-09-30T14:05:19;18.60;1.00
39401;DHT22;54391;50.000;7.360;2023-09-30T14:07:47;16.50;1.00
39401;DHT22;54391;50.000;7.360;2023-09-30T14:10:15;18.60;1.00
39401;DHT22;54391;50.000;7.360;2023-09-30T14:12:42;18.60;1.00
39401;DHT22;54391;50.000;7.360;2023-09-30T14:15:10;18.50;1.00
39401;DHT22;54391;50.000;7.360;2023-09-30T14:17:38;18.50;1.00
39401;DHT22;54391;50.000;7.360;2023-09-30T14:20:08;18.50;1.00
39401;DHT22;54391;50.000;7.360;2023-09-30T14:22:35;18.50;1.00
39401;DHT22;54391;50.000;7.360;2023-09-30T14:25:03;18.60;1.00
39401;DHT22;54391;50.000;7.360;2023-09-30T14:27:31;18.60;1.00
39401;DHT22;54391;50.000;7.360;2023-09-30T14:29:58;18.50;1.00
39401;DHT22;54391;50.000;7.360;2023-09-30T14:32:26;18.50;1.00
39401;DHT22;54391;50.000;7.360;2023-09-30T14:34:54;18.50;1.00
39401;DHT22;54391;50.000;7.360;2023-09-30T14:37:24;18.60;1.00
39401;DHT22;54391;50.000;7.360;2023-09-30T14:39:53;18.70;1.00
39401;DHT22;54391;50.000;7.360;2023-09-30T14:42:20;18.70;1.00
39401;DHT22;54391;50.000;7.360;2023-09-30T14:44:47;18.60;1.00
39401;DHT22;54391;50.000;7.360;2023-09-30T14:47:15;18.60;1.00
39401;DHT22;54391;50.000;7.360;2023-09-30T14:49:42;18.60;1.00
39401;DHT22;54391;50.000;7.360;2023-09-30T14:52:09;18.70;1.00
39401;DHT22;54391;50.000;7.360;2023-09-30T14:54:38;18.70;1.00
39401;DHT22;54391;50.000;7.360;2023-09-30T14:57:05;18.70;1.00
39401;DHT22;54391;50.000;7.360;2023-09-30T14:59:34;18.60;1.00
39401;DHT22;54391;50.000;7.360;2023-09-30T15:02:01;18.50;1.00
39401;DHT22;54391;50.000;7.360;2023-09-30T15:04:29;18.40;1.00
39401;DHT22;54391;50.000;7.360;2023-09-30T15:06:59;19.00;1.00
39401;DHT22;54391;50.000;7.360;2023-09-30T15:09:26;18.30;1.00
39401;DHT22;54391;50.000;7.360;2023-09-30T15:11:55;18.30;1.00
39401;DHT22;54391;50.000;7.360;2023-09-30T15:14:24;18.30;1.00
39401;DHT22;54391;50.000;7.360;2023-09-30T15:16:51;18.30;1.00
39401;DHT22;54391;50.000;7.360;2023-09-30T15:19:18;18.40;1.00
39401;DHT22;54391;50.000;7.360;2023-09-30T15:21:46;18.30;1.00
39401;DHT22;54391;50.000;7.360;2023-09-30T15:24:13;18.40;1.00
39401;DHT22;54391;50.000;7.360;2023-09-30T15:26:40;18.50;1.00
39401;DHT22;54391;50.000;7.360;2023-09-30T15:29:09;18.40;1.00
39401;DHT22;54391;50.000;7.360;2023-09-30T15:31:36;18.40;1.00
39401;DHT22;54391;50.000;7.360;2023-09-30T15:34:04;18.30;1.00
39401;DHT22;54391;50.000;7.360;2023-09-30T15:36:32;18.00;1.00
39401;DHT22;54391;50.000;7.360;2023-09-30T15:38:59;18.00;1.00
39401;DHT22;54391;50.000;7.360;2023-09-30T15:41:27;17.90;1.00
39401;DHT22;54391;50.000;7.360;2023-09-30T15:43:58;17.90;1.00
39401;DHT22;54391;50.000;7.360;2023-09-30T15:46:27;17.80;1.00
39401;DHT22;54391;50.000;7.360;2023-09-30T15:48:54;17.80;1.00